<?xml version="1.0" encoding="UTF-8" standalone="no" ?>
<gpx xmlns="http://www.topografix.com/GPX/1/1" xmlns:xsi="http://www.w3.org/2001/XMLSchema-instance" xsi:schemaLocation="http://www.topografix.com/GPX/1/1 http://www.topografix.com/GPX/1/1/gpx.xsd" version="1.1" creator="VisuGPX - https://www.visugpx.com">
  <metadata>
    <name>CDS j10</name>
    <desc><![CDATA[Chemin du soleil]]></desc>
  </metadata>
  <trk>
    <name><![CDATA[ACTIVE LOG163537]]></name>
    <trkseg>
      <trkpt lat="44.0907" lon="6.49956">
        <ele>1129</ele>
        <time>2011-08-18T14:35:37Z</time>
      </trkpt>
      <trkpt lat="44.09085" lon="6.50006">
        <ele>1131</ele>
        <time>2011-08-18T14:35:52Z</time>
      </trkpt>
      <trkpt lat="44.09083" lon="6.50099">
        <ele>1125</ele>
        <time>2011-08-18T14:36:07Z</time>
      </trkpt>
      <trkpt lat="44.09089" lon="6.5018">
        <ele>1130</ele>
        <time>2011-08-18T14:36:21Z</time>
      </trkpt>
      <trkpt lat="44.09062" lon="6.50246">
        <ele>1124</ele>
        <time>2011-08-18T14:36:33Z</time>
      </trkpt>
      <trkpt lat="44.09009" lon="6.50282">
        <ele>1125</ele>
        <time>2011-08-18T14:36:44Z</time>
      </trkpt>
      <trkpt lat="44.08987" lon="6.50292">
        <ele>1121</ele>
        <time>2011-08-18T14:36:48Z</time>
      </trkpt>
      <trkpt lat="44.08935" lon="6.50294">
        <ele>1119</ele>
        <time>2011-08-18T14:36:57Z</time>
      </trkpt>
      <trkpt lat="44.08889" lon="6.50336">
        <ele>1117</ele>
        <time>2011-08-18T14:37:08Z</time>
      </trkpt>
      <trkpt lat="44.08887" lon="6.50343">
        <ele>1116</ele>
        <time>2011-08-18T14:37:09Z</time>
      </trkpt>
      <trkpt lat="44.08883" lon="6.50373">
        <ele>1116</ele>
        <time>2011-08-18T14:37:13Z</time>
      </trkpt>
      <trkpt lat="44.0888" lon="6.50504">
        <ele>1119</ele>
        <time>2011-08-18T14:37:28Z</time>
      </trkpt>
      <trkpt lat="44.08872" lon="6.50644">
        <ele>1116</ele>
        <time>2011-08-18T14:37:43Z</time>
      </trkpt>
      <trkpt lat="44.08872" lon="6.50661">
        <ele>1116</ele>
        <time>2011-08-18T14:37:45Z</time>
      </trkpt>
      <trkpt lat="44.0887" lon="6.50741">
        <ele>1116</ele>
        <time>2011-08-18T14:37:55Z</time>
      </trkpt>
      <trkpt lat="44.08865" lon="6.50782">
        <ele>1117</ele>
        <time>2011-08-18T14:38:01Z</time>
      </trkpt>
      <trkpt lat="44.08874" lon="6.50904">
        <ele>1119</ele>
        <time>2011-08-18T14:38:19Z</time>
      </trkpt>
      <trkpt lat="44.08879" lon="6.51033">
        <ele>1122</ele>
        <time>2011-08-18T14:38:38Z</time>
      </trkpt>
      <trkpt lat="44.08877" lon="6.51064">
        <ele>1123</ele>
        <time>2011-08-18T14:38:43Z</time>
      </trkpt>
      <trkpt lat="44.08901" lon="6.51169">
        <ele>1125</ele>
        <time>2011-08-18T14:39:00Z</time>
      </trkpt>
      <trkpt lat="44.08916" lon="6.51269">
        <ele>1128</ele>
        <time>2011-08-18T14:39:17Z</time>
      </trkpt>
      <trkpt lat="44.08918" lon="6.51355">
        <ele>1131</ele>
        <time>2011-08-18T14:39:34Z</time>
      </trkpt>
      <trkpt lat="44.08915" lon="6.51463">
        <ele>1131</ele>
        <time>2011-08-18T14:39:51Z</time>
      </trkpt>
      <trkpt lat="44.08915" lon="6.51535">
        <ele>1132</ele>
        <time>2011-08-18T14:40:03Z</time>
      </trkpt>
      <trkpt lat="44.08919" lon="6.51619">
        <ele>1136</ele>
        <time>2011-08-18T14:40:17Z</time>
      </trkpt>
      <trkpt lat="44.08947" lon="6.51737">
        <ele>1140</ele>
        <time>2011-08-18T14:40:39Z</time>
      </trkpt>
      <trkpt lat="44.08975" lon="6.51862">
        <ele>1146</ele>
        <time>2011-08-18T14:41:04Z</time>
      </trkpt>
      <trkpt lat="44.08993" lon="6.51936">
        <ele>1150</ele>
        <time>2011-08-18T14:41:22Z</time>
      </trkpt>
      <trkpt lat="44.09011" lon="6.52027">
        <ele>1154</ele>
        <time>2011-08-18T14:41:42Z</time>
      </trkpt>
      <trkpt lat="44.09041" lon="6.52124">
        <ele>1154</ele>
        <time>2011-08-18T14:42:01Z</time>
      </trkpt>
      <trkpt lat="44.09056" lon="6.52175">
        <ele>1153</ele>
        <time>2011-08-18T14:42:08Z</time>
      </trkpt>
      <trkpt lat="44.09061" lon="6.52277">
        <ele>1150</ele>
        <time>2011-08-18T14:42:19Z</time>
      </trkpt>
      <trkpt lat="44.09041" lon="6.5238">
        <ele>1150</ele>
        <time>2011-08-18T14:42:34Z</time>
      </trkpt>
      <trkpt lat="44.09017" lon="6.52503">
        <ele>1152</ele>
        <time>2011-08-18T14:42:55Z</time>
      </trkpt>
      <trkpt lat="44.09003" lon="6.5264">
        <ele>1155</ele>
        <time>2011-08-18T14:43:13Z</time>
      </trkpt>
      <trkpt lat="44.08994" lon="6.52746">
        <ele>1152</ele>
        <time>2011-08-18T14:43:27Z</time>
      </trkpt>
      <trkpt lat="44.08992" lon="6.52871">
        <ele>1155</ele>
        <time>2011-08-18T14:43:46Z</time>
      </trkpt>
      <trkpt lat="44.08993" lon="6.52973">
        <ele>1156</ele>
        <time>2011-08-18T14:44:01Z</time>
      </trkpt>
      <trkpt lat="44.09011" lon="6.53054">
        <ele>1160</ele>
        <time>2011-08-18T14:44:17Z</time>
      </trkpt>
      <trkpt lat="44.09047" lon="6.53154">
        <ele>1160</ele>
        <time>2011-08-18T14:44:37Z</time>
      </trkpt>
      <trkpt lat="44.09078" lon="6.53248">
        <ele>1160</ele>
        <time>2011-08-18T14:44:55Z</time>
      </trkpt>
      <trkpt lat="44.09115" lon="6.53357">
        <ele>1162</ele>
        <time>2011-08-18T14:45:16Z</time>
      </trkpt>
      <trkpt lat="44.09128" lon="6.53414">
        <ele>1163</ele>
        <time>2011-08-18T14:45:26Z</time>
      </trkpt>
      <trkpt lat="44.09135" lon="6.53486">
        <ele>1162</ele>
        <time>2011-08-18T14:45:38Z</time>
      </trkpt>
      <trkpt lat="44.09161" lon="6.53573">
        <ele>1163</ele>
        <time>2011-08-18T14:45:52Z</time>
      </trkpt>
      <trkpt lat="44.09165" lon="6.53591">
        <ele>1163</ele>
        <time>2011-08-18T14:45:55Z</time>
      </trkpt>
      <trkpt lat="44.09156" lon="6.53687">
        <ele>1162</ele>
        <time>2011-08-18T14:46:11Z</time>
      </trkpt>
      <trkpt lat="44.09152" lon="6.5372">
        <ele>1162</ele>
        <time>2011-08-18T14:46:17Z</time>
      </trkpt>
      <trkpt lat="44.09143" lon="6.53765">
        <ele>1161</ele>
        <time>2011-08-18T14:46:24Z</time>
      </trkpt>
      <trkpt lat="44.09165" lon="6.53883">
        <ele>1159</ele>
        <time>2011-08-18T14:46:40Z</time>
      </trkpt>
      <trkpt lat="44.09174" lon="6.53986">
        <ele>1167</ele>
        <time>2011-08-18T14:46:54Z</time>
      </trkpt>
      <trkpt lat="44.09193" lon="6.54118">
        <ele>1169</ele>
        <time>2011-08-18T14:47:14Z</time>
      </trkpt>
      <trkpt lat="44.09195" lon="6.5414">
        <ele>1169</ele>
        <time>2011-08-18T14:47:17Z</time>
      </trkpt>
      <trkpt lat="44.09184" lon="6.54268">
        <ele>1169</ele>
        <time>2011-08-18T14:47:36Z</time>
      </trkpt>
      <trkpt lat="44.09169" lon="6.54351">
        <ele>1165</ele>
        <time>2011-08-18T14:47:49Z</time>
      </trkpt>
      <trkpt lat="44.09179" lon="6.54448">
        <ele>1160</ele>
        <time>2011-08-18T14:48:04Z</time>
      </trkpt>
      <trkpt lat="44.09181" lon="6.54461">
        <ele>1159</ele>
        <time>2011-08-18T14:48:06Z</time>
      </trkpt>
      <trkpt lat="44.09212" lon="6.54568">
        <ele>1155</ele>
        <time>2011-08-18T14:48:23Z</time>
      </trkpt>
      <trkpt lat="44.09218" lon="6.54581">
        <ele>1155</ele>
        <time>2011-08-18T14:48:25Z</time>
      </trkpt>
      <trkpt lat="44.09278" lon="6.5465">
        <ele>1159</ele>
        <time>2011-08-18T14:48:40Z</time>
      </trkpt>
      <trkpt lat="44.09313" lon="6.54676">
        <ele>1157</ele>
        <time>2011-08-18T14:48:48Z</time>
      </trkpt>
      <trkpt lat="44.09325" lon="6.54696">
        <ele>1156</ele>
        <time>2011-08-18T14:48:52Z</time>
      </trkpt>
      <trkpt lat="44.09352" lon="6.54755">
        <ele>1158</ele>
        <time>2011-08-18T14:49:02Z</time>
      </trkpt>
      <trkpt lat="44.09401" lon="6.54863">
        <ele>1154</ele>
        <time>2011-08-18T14:49:18Z</time>
      </trkpt>
      <trkpt lat="44.09452" lon="6.54966">
        <ele>1155</ele>
        <time>2011-08-18T14:49:33Z</time>
      </trkpt>
      <trkpt lat="44.09463" lon="6.54992">
        <ele>1155</ele>
        <time>2011-08-18T14:49:37Z</time>
      </trkpt>
      <trkpt lat="44.09514" lon="6.55119">
        <ele>1152</ele>
        <time>2011-08-18T14:49:55Z</time>
      </trkpt>
      <trkpt lat="44.09557" lon="6.55233">
        <ele>1153</ele>
        <time>2011-08-18T14:50:12Z</time>
      </trkpt>
      <trkpt lat="44.09589" lon="6.5531">
        <ele>1154</ele>
        <time>2011-08-18T14:50:27Z</time>
      </trkpt>
      <trkpt lat="44.09624" lon="6.55376">
        <ele>1151</ele>
        <time>2011-08-18T14:50:38Z</time>
      </trkpt>
      <trkpt lat="44.09661" lon="6.55451">
        <ele>1146</ele>
        <time>2011-08-18T14:50:50Z</time>
      </trkpt>
      <trkpt lat="44.09675" lon="6.55483">
        <ele>1146</ele>
        <time>2011-08-18T14:50:57Z</time>
      </trkpt>
      <trkpt lat="44.0967" lon="6.55489">
        <ele>1146</ele>
        <time>2011-08-18T14:51:11Z</time>
      </trkpt>
      <trkpt lat="44.09663" lon="6.55501">
        <ele>1144</ele>
        <time>2011-08-18T14:51:19Z</time>
      </trkpt>
      <trkpt lat="44.09667" lon="6.55534">
        <ele>1143</ele>
        <time>2011-08-18T14:51:25Z</time>
      </trkpt>
      <trkpt lat="44.09695" lon="6.55585">
        <ele>1145</ele>
        <time>2011-08-18T14:51:38Z</time>
      </trkpt>
      <trkpt lat="44.09697" lon="6.5559">
        <ele>1145</ele>
        <time>2011-08-18T14:51:39Z</time>
      </trkpt>
      <trkpt lat="44.09693" lon="6.55663">
        <ele>1142</ele>
        <time>2011-08-18T14:51:51Z</time>
      </trkpt>
      <trkpt lat="44.09691" lon="6.55684">
        <ele>1138</ele>
        <time>2011-08-18T14:52:01Z</time>
      </trkpt>
    </trkseg>
  </trk>
</gpx>